createdAt,value
2022-08-22T00:03:05.252Z,25.73
2022-08-22T00:04:22.440Z,25.91
2022-08-22T00:05:26.903Z,25.9
2022-08-22T00:06:31.388Z,25.91
2022-08-22T00:07:36.024Z,25.91
2022-08-22T00:08:40.582Z,25.9
2022-08-22T00:09:45.297Z,25.9
2022-08-22T00:10:49.842Z,25.89
2022-08-22T00:11:54.392Z,25.9
2022-08-22T00:12:59.046Z,25.9
2022-08-22T00:14:03.631Z,25.9
2022-08-22T00:15:08.499Z,25.88
2022-08-22T00:16:46.882Z,25.89
2022-08-22T00:17:52.413Z,25.9
2022-08-22T00:18:57.025Z,25.89
2022-08-22T00:20:01.839Z,25.89
2022-08-22T00:21:06.312Z,25.89
2022-08-22T00:22:10.717Z,25.9
2022-08-22T00:23:15.163Z,25.89
2022-08-22T00:24:19.625Z,25.89
2022-08-22T00:25:25.534Z,25.89
2022-08-22T00:26:30.364Z,25.88
2022-08-22T00:27:35.103Z,25.88
2022-08-22T00:28:47.311Z,25.87
2022-08-22T00:29:51.744Z,25.88
2022-08-22T00:30:56.844Z,25.87
2022-08-22T00:32:04.005Z,25.87
2022-08-22T00:33:08.382Z,25.87
2022-08-22T00:34:12.757Z,25.88
2022-08-22T00:35:17.223Z,25.87
2022-08-22T00:36:21.614Z,25.87
2022-08-22T00:37:26.024Z,25.88
2022-08-22T00:38:30.407Z,25.89
2022-08-22T00:39:34.842Z,25.91
2022-08-22T00:40:39.376Z,25.91
2022-08-22T00:41:43.773Z,25.91
2022-08-22T00:42:48.211Z,25.92
2022-08-22T00:43:52.610Z,25.91
2022-08-22T00:44:57.049Z,25.91
2022-08-22T00:46:01.447Z,25.91
2022-08-22T00:47:05.849Z,25.91
2022-08-22T00:48:10.285Z,25.9
2022-08-22T00:49:18.739Z,25.9
2022-08-22T00:50:24.868Z,25.91
2022-08-22T00:51:29.335Z,25.9
2022-08-22T00:52:33.762Z,25.9
2022-08-22T00:53:38.196Z,25.9
2022-08-22T00:54:42.778Z,25.89
2022-08-22T00:55:47.159Z,25.89
2022-08-22T00:56:51.558Z,25.89
2022-08-22T00:57:56.031Z,25.89
2022-08-22T00:59:10.654Z,25.89
2022-08-22T01:00:27.691Z,25.89
2022-08-22T01:01:37.464Z,25.88
2022-08-22T01:02:42.087Z,25.88
2022-08-22T01:03:46.497Z,25.88
2022-08-22T01:04:50.911Z,25.88
2022-08-22T01:05:55.369Z,25.88
2022-08-22T01:06:59.781Z,25.88
2022-08-22T01:08:04.161Z,25.88
2022-08-22T01:09:08.590Z,25.87
2022-08-22T01:10:13.004Z,25.87
2022-08-22T01:11:17.626Z,25.87
2022-08-22T01:12:22.039Z,25.87
2022-08-22T01:13:26.449Z,25.86
2022-08-22T01:14:34.473Z,25.86
2022-08-22T01:15:39.532Z,25.86
2022-08-22T01:16:43.982Z,25.86
2022-08-22T01:17:48.473Z,25.86
2022-08-22T01:18:53.115Z,25.87
2022-08-22T01:19:57.687Z,25.87
2022-08-22T01:21:02.273Z,25.87
2022-08-22T01:22:06.818Z,25.88
2022-08-22T01:23:11.320Z,25.89
2022-08-22T01:24:15.722Z,25.89
2022-08-22T01:25:25.968Z,25.9
2022-08-22T01:26:31.795Z,25.89
2022-08-22T01:27:36.545Z,25.89
2022-08-22T01:28:42.862Z,25.9
2022-08-22T01:29:48.437Z,25.9
2022-08-22T01:30:52.879Z,25.89
2022-08-22T01:31:57.323Z,25.89
2022-08-22T01:33:01.770Z,25.89
2022-08-22T01:34:06.150Z,25.88
2022-08-22T01:35:17.350Z,25.88
2022-08-22T01:36:21.976Z,25.88
2022-08-22T01:37:27.497Z,25.87
2022-08-22T01:38:31.974Z,25.88
2022-08-22T01:39:36.372Z,25.9
2022-08-22T01:40:47.623Z,25.91
2022-08-22T01:41:58.598Z,25.91
2022-08-22T01:43:03.031Z,25.9
2022-08-22T01:44:07.364Z,25.9
2022-08-22T01:45:11.718Z,25.9
2022-08-22T01:46:19.581Z,25.9
2022-08-22T01:47:29.278Z,25.9
2022-08-22T01:48:41.271Z,25.9
2022-08-22T01:49:47.738Z,25.89
2022-08-22T01:50:52.106Z,25.9
2022-08-22T01:51:56.478Z,25.89
2022-08-22T01:53:00.845Z,25.9
2022-08-22T01:54:05.173Z,25.9
2022-08-22T01:55:09.542Z,25.91
2022-08-22T01:56:13.897Z,25.91
2022-08-22T01:57:18.277Z,25.9
2022-08-22T01:58:22.623Z,25.91
2022-08-22T01:59:27.557Z,25.91
2022-08-22T02:00:45.494Z,25.91
2022-08-22T02:01:49.924Z,25.92
2022-08-22T02:02:54.258Z,25.93
2022-08-22T02:03:58.670Z,25.94
2022-08-22T02:05:03.050Z,25.95
2022-08-22T02:06:07.381Z,25.95
2022-08-22T02:07:17.710Z,25.96
2022-08-22T02:08:22.041Z,25.97
2022-08-22T02:09:26.409Z,25.97
2022-08-22T02:10:30.764Z,25.96
2022-08-22T02:11:35.173Z,25.96
2022-08-22T02:12:39.509Z,25.97
2022-08-22T02:13:43.871Z,25.96
2022-08-22T02:14:48.231Z,25.96
2022-08-22T02:15:52.611Z,25.95
2022-08-22T02:16:56.964Z,25.96
2022-08-22T02:18:01.351Z,25.95
2022-08-22T02:19:05.671Z,25.95
2022-08-22T02:20:11.445Z,25.95
2022-08-22T02:21:15.803Z,25.94
2022-08-22T02:22:20.140Z,25.94
2022-08-22T02:23:24.459Z,25.94
2022-08-22T02:24:28.778Z,25.93
2022-08-22T02:25:33.130Z,25.93
2022-08-22T02:26:37.468Z,25.93
2022-08-22T02:27:41.839Z,25.92
2022-08-22T02:28:56.388Z,25.93
2022-08-22T02:30:01.472Z,25.93
2022-08-22T02:31:07.338Z,25.92
2022-08-22T02:32:11.723Z,25.92
2022-08-22T02:33:16.125Z,25.92
2022-08-22T02:34:20.495Z,25.92
2022-08-22T02:35:24.868Z,25.92
2022-08-22T02:36:29.240Z,25.92
2022-08-22T02:37:33.615Z,25.93
2022-08-22T02:38:38.004Z,25.92
2022-08-22T02:39:42.441Z,25.91
2022-08-22T02:40:46.915Z,25.89
2022-08-22T02:41:51.315Z,25.88
2022-08-22T02:42:55.767Z,25.86
2022-08-22T02:44:00.151Z,25.85
2022-08-22T02:45:04.557Z,25.85
2022-08-22T02:46:08.986Z,25.85
2022-08-22T02:47:13.377Z,25.84
2022-08-22T02:48:19.951Z,25.84
2022-08-22T02:49:30.260Z,25.84
2022-08-22T02:50:46.122Z,25.83
2022-08-22T02:51:50.520Z,25.82
2022-08-22T02:52:54.914Z,25.83
2022-08-22T02:53:59.289Z,25.83
2022-08-22T02:55:03.654Z,25.83
2022-08-22T02:56:08.010Z,25.82
2022-08-22T02:57:14.355Z,25.83
2022-08-22T02:58:19.767Z,25.82
2022-08-22T02:59:24.161Z,25.81
2022-08-22T03:00:32.212Z,25.8
2022-08-22T03:01:37.553Z,25.79
2022-08-22T03:02:45.362Z,25.8
2022-08-22T03:03:49.903Z,25.79
2022-08-22T03:04:54.307Z,25.8
2022-08-22T03:06:01.237Z,25.79
2022-08-22T03:07:06.021Z,25.79
2022-08-22T03:08:10.390Z,25.79
2022-08-22T03:09:17.277Z,25.79
2022-08-22T03:10:24.195Z,25.79
2022-08-22T03:11:28.551Z,25.78
2022-08-22T03:12:32.927Z,25.79
2022-08-22T03:13:37.302Z,25.79
2022-08-22T03:14:41.674Z,25.79
2022-08-22T03:15:48.564Z,25.78
2022-08-22T03:16:53.816Z,25.77
2022-08-22T03:17:58.325Z,25.76
2022-08-22T03:19:03.384Z,25.76
2022-08-22T03:20:07.870Z,25.76
2022-08-22T03:21:12.534Z,25.74
2022-08-22T03:22:16.943Z,25.73
2022-08-22T03:23:21.347Z,25.73
2022-08-22T03:24:25.735Z,25.73
2022-08-22T03:25:30.179Z,25.74
2022-08-22T03:26:34.530Z,25.75
2022-08-22T03:27:38.887Z,25.76
2022-08-22T03:28:52.782Z,25.76
2022-08-22T03:30:04.257Z,25.75
2022-08-22T03:31:10.403Z,25.76
2022-08-22T03:32:15.964Z,25.78
2022-08-22T03:33:20.322Z,25.76
2022-08-22T03:34:24.720Z,25.77
2022-08-22T03:35:29.100Z,25.76
2022-08-22T03:36:33.477Z,25.74
2022-08-22T03:37:37.838Z,25.75
2022-08-22T03:38:42.235Z,25.73
2022-08-22T03:39:46.699Z,25.74
2022-08-22T03:40:51.341Z,25.72
2022-08-22T03:41:55.751Z,25.73
2022-08-22T03:43:00.236Z,25.74
2022-08-22T03:44:04.640Z,25.73
2022-08-22T03:45:09.033Z,25.73
2022-08-22T03:46:13.415Z,25.73
2022-08-22T03:47:22.166Z,25.72
2022-08-22T03:48:30.417Z,25.72
2022-08-22T03:49:34.836Z,25.73
2022-08-22T03:50:39.267Z,25.75
2022-08-22T03:51:43.683Z,25.77
2022-08-22T03:52:48.113Z,25.78
2022-08-22T03:53:52.531Z,25.81
2022-08-22T03:54:56.892Z,25.81
2022-08-22T03:56:01.288Z,25.82
2022-08-22T03:57:05.670Z,25.82
2022-08-22T03:58:13.660Z,25.82
2022-08-22T03:59:31.918Z,25.83
2022-08-22T04:00:37.651Z,25.84
2022-08-22T04:01:42.123Z,25.86
2022-08-22T04:02:46.499Z,25.87
2022-08-22T04:03:50.878Z,25.88
2022-08-22T04:04:57.799Z,25.89
2022-08-22T04:06:02.759Z,25.89
2022-08-22T04:07:28.118Z,25.9
2022-08-22T04:08:37.332Z,25.9
2022-08-22T04:09:48.317Z,25.91
2022-08-22T04:10:54.473Z,25.9
2022-08-22T04:11:58.889Z,25.9
2022-08-22T04:13:03.247Z,25.91
2022-08-22T04:14:07.605Z,25.89
2022-08-22T04:15:12.082Z,25.91
2022-08-22T04:16:16.470Z,25.91
2022-08-22T04:17:20.806Z,25.94
2022-08-22T04:18:25.137Z,25.81
2022-08-22T04:19:29.553Z,25.74
2022-08-22T04:20:33.926Z,25.68
2022-08-22T04:21:38.368Z,25.64
2022-08-22T04:22:42.755Z,25.63
2022-08-22T04:23:47.158Z,25.61
2022-08-22T04:24:52.029Z,25.58
2022-08-22T04:25:56.907Z,25.56
2022-08-22T04:27:10.642Z,25.56
2022-08-22T04:28:15.031Z,25.55
2022-08-22T04:29:19.421Z,25.5
2022-08-22T04:30:23.849Z,25.51
2022-08-22T04:31:28.219Z,25.47
2022-08-22T04:32:32.598Z,25.52
2022-08-22T04:33:36.970Z,25.49
2022-08-22T04:34:41.391Z,25.44
2022-08-22T04:35:45.785Z,25.43
2022-08-22T04:36:50.160Z,25.42
2022-08-22T04:37:54.553Z,25.39
2022-08-22T04:38:59.149Z,25.36
2022-08-22T04:40:03.644Z,25.36
2022-08-22T04:41:08.266Z,25.38
2022-08-22T04:42:31.530Z,25.38
2022-08-22T04:43:37.038Z,25.41
2022-08-22T04:44:41.401Z,25.4
2022-08-22T04:45:45.825Z,25.37
2022-08-22T04:46:50.191Z,25.39
2022-08-22T04:47:54.603Z,25.34
2022-08-22T04:48:59.133Z,25.33
2022-08-22T04:50:05.499Z,25.34
2022-08-22T04:51:09.877Z,25.32
2022-08-22T04:52:14.399Z,25.31
2022-08-22T04:53:18.784Z,25.36
2022-08-22T04:54:23.141Z,25.33
2022-08-22T04:55:27.503Z,25.34
2022-08-22T04:56:31.856Z,25.36
2022-08-22T04:57:36.235Z,25.35
2022-08-22T04:58:40.637Z,25.33
2022-08-22T04:59:45.046Z,25.33
2022-08-22T05:00:53.489Z,25.29
2022-08-22T05:01:57.943Z,25.34
2022-08-22T05:03:02.578Z,25.33
2022-08-22T05:04:06.995Z,25.32
2022-08-22T05:05:13.657Z,25.31
2022-08-22T05:06:18.209Z,25.32
2022-08-22T05:07:24.546Z,25.33
2022-08-22T05:08:28.920Z,25.27
2022-08-22T05:09:33.280Z,25.31
2022-08-22T05:10:37.674Z,25.32
2022-08-22T05:11:42.043Z,25.29
2022-08-22T05:12:46.399Z,25.28
2022-08-22T05:13:50.767Z,25.27
2022-08-22T05:14:55.118Z,25.3
2022-08-22T05:15:59.511Z,25.29
2022-08-22T05:17:04.857Z,25.26
2022-08-22T05:18:09.216Z,25.26
2022-08-22T05:19:16.554Z,25.26
2022-08-22T05:20:34.090Z,25.29
2022-08-22T05:21:38.486Z,25.28
2022-08-22T05:22:42.846Z,25.32
2022-08-22T05:23:47.236Z,25.26
2022-08-22T05:24:51.605Z,25.2
2022-08-22T05:25:55.956Z,25.17
2022-08-22T05:27:00.343Z,25.25
2022-08-22T05:28:04.731Z,25.19
2022-08-22T05:29:09.105Z,25.2
2022-08-22T05:30:13.448Z,25.24
2022-08-22T05:31:17.819Z,25.22
2022-08-22T05:32:27.778Z,25.24
2022-08-22T05:33:32.150Z,25.2
2022-08-22T05:34:36.536Z,25.26
2022-08-22T05:35:40.872Z,25.19
2022-08-22T05:36:53.132Z,25.18
2022-08-22T05:37:57.677Z,25.18
2022-08-22T05:39:02.644Z,25.21
2022-08-22T05:40:07.056Z,25.2
2022-08-22T05:41:11.630Z,25.24
2022-08-22T05:42:16.012Z,25.21
2022-08-22T05:43:20.384Z,25.24
2022-08-22T05:44:24.814Z,25.19
2022-08-22T05:45:29.190Z,25.22
2022-08-22T05:46:33.610Z,25.19
2022-08-22T05:47:38.024Z,25.17
2022-08-22T05:48:42.399Z,25.17
2022-08-22T05:49:48.022Z,25.21
2022-08-22T05:50:53.072Z,25.21
2022-08-22T05:51:57.506Z,25.2
2022-08-22T05:53:01.921Z,25.25
2022-08-22T05:54:06.446Z,25.22
2022-08-22T05:55:10.856Z,25.21
2022-08-22T05:56:15.339Z,25.23
2022-08-22T05:57:19.743Z,25.23
2022-08-22T05:58:24.107Z,25.22
2022-08-22T05:59:28.498Z,25.2
2022-08-22T06:00:32.942Z,25.18
2022-08-22T06:01:37.388Z,25.19
2022-08-22T06:02:41.952Z,25.19
2022-08-22T06:03:46.331Z,25.2
2022-08-22T06:04:52.153Z,25.24
2022-08-22T06:05:56.669Z,25.24
2022-08-22T06:07:01.079Z,25.23
2022-08-22T06:08:05.487Z,25.26
2022-08-22T06:09:09.885Z,25.24
2022-08-22T06:10:14.291Z,25.16
2022-08-22T06:11:18.672Z,25.18
2022-08-22T06:12:26.966Z,25.18
2022-08-22T06:13:32.675Z,25.18
2022-08-22T06:14:37.121Z,25.18
2022-08-22T06:15:44.860Z,25.19
2022-08-22T06:16:51.912Z,25.19
2022-08-22T06:17:57.679Z,25.19
2022-08-22T06:19:02.779Z,25.19
2022-08-22T06:20:22.701Z,25.2
2022-08-22T06:21:27.059Z,25.18
2022-08-22T06:22:42.042Z,25.14
2022-08-22T06:23:46.422Z,25.14
2022-08-22T06:24:50.823Z,25.12
2022-08-22T06:25:55.182Z,25.11
2022-08-22T06:26:59.566Z,25.1
2022-08-22T06:28:03.910Z,25.09
2022-08-22T06:29:08.315Z,25.12
2022-08-22T06:30:12.712Z,25.12
2022-08-22T06:31:17.136Z,25.13
2022-08-22T06:32:30.809Z,25.09
2022-08-22T06:34:04.407Z,25.11
2022-08-22T06:35:08.836Z,25.12
2022-08-22T06:36:13.177Z,25.12
2022-08-22T06:37:23.879Z,25.13
2022-08-22T06:38:28.298Z,25.12
2022-08-22T06:39:32.673Z,25.11
2022-08-22T06:40:37.121Z,25.09
2022-08-22T06:41:41.482Z,25.05
2022-08-22T06:42:45.835Z,25.07
2022-08-22T06:43:50.188Z,25.08
2022-08-22T06:44:54.531Z,25.08
2022-08-22T06:45:59.048Z,25.1
2022-08-22T06:47:03.406Z,25.08
2022-08-22T06:48:07.892Z,25.08
2022-08-22T06:49:12.282Z,25.09
2022-08-22T06:50:16.661Z,25.1
2022-08-22T06:51:21.018Z,25.06
2022-08-22T06:52:28.424Z,25.05
2022-08-22T06:53:34.670Z,25.01
2022-08-22T06:54:41.935Z,25
2022-08-22T06:55:46.310Z,25.02
2022-08-22T06:56:50.673Z,25.05
2022-08-22T06:57:55.071Z,25.07
2022-08-22T06:58:59.522Z,25.05
2022-08-22T07:00:03.946Z,25.02
2022-08-22T07:01:11.202Z,25.03
2022-08-22T07:02:16.216Z,25.02
2022-08-22T07:03:21.885Z,24.99
2022-08-22T07:04:26.260Z,24.98
2022-08-22T07:05:30.683Z,24.99
2022-08-22T07:06:35.025Z,24.97
2022-08-22T07:07:39.907Z,25.01
2022-08-22T07:08:44.269Z,25.01
2022-08-22T07:09:48.635Z,25.03
2022-08-22T07:10:53.031Z,25
2022-08-22T07:11:57.393Z,24.98
2022-08-22T07:13:01.759Z,25
2022-08-22T07:14:06.122Z,24.97
2022-08-22T07:15:10.481Z,25.01
2022-08-22T07:16:14.876Z,25.02
2022-08-22T07:17:19.502Z,25.02
2022-08-22T07:18:23.884Z,25.01
2022-08-22T07:19:28.324Z,25
2022-08-22T07:20:32.713Z,25
2022-08-22T07:21:37.135Z,25.01
2022-08-22T07:22:42.832Z,24.99
2022-08-22T07:23:47.245Z,25
2022-08-22T07:24:54.482Z,25.01
2022-08-22T07:25:58.861Z,25.03
2022-08-22T07:27:04.112Z,25
2022-08-22T07:28:12.629Z,24.99
2022-08-22T07:29:20.513Z,24.96
2022-08-22T07:30:28.523Z,24.96
2022-08-22T07:31:33.171Z,24.98
2022-08-22T07:32:37.654Z,25.01
2022-08-22T07:33:41.990Z,25.01
2022-08-22T07:34:46.356Z,24.99
2022-08-22T07:35:53.070Z,25.03
2022-08-22T07:36:58.094Z,24.97
2022-08-22T07:38:03.379Z,24.97
2022-08-22T07:39:10.121Z,24.96
2022-08-22T07:40:15.767Z,24.98
2022-08-22T07:41:20.323Z,24.97
2022-08-22T07:42:27.537Z,24.96
2022-08-22T07:43:34.138Z,24.96
2022-08-22T07:44:38.487Z,25.01
2022-08-22T07:45:42.838Z,24.97
2022-08-22T07:46:47.186Z,24.98
2022-08-22T07:47:51.540Z,24.97
2022-08-22T07:49:08.437Z,24.95
2022-08-22T07:50:13.737Z,24.96
2022-08-22T07:51:18.144Z,24.99
2022-08-22T07:52:22.597Z,24.99
2022-08-22T07:53:26.935Z,25
2022-08-22T07:54:31.319Z,25.02
2022-08-22T07:55:41.125Z,25.04
2022-08-22T07:56:54.118Z,24.97
2022-08-22T07:57:58.598Z,24.92
2022-08-22T07:59:09.851Z,24.91
2022-08-22T08:00:17.150Z,24.95
2022-08-22T08:01:21.665Z,24.95
2022-08-22T08:02:26.265Z,24.92
2022-08-22T08:03:30.622Z,24.95
2022-08-22T08:04:39.655Z,24.97
2022-08-22T08:05:44.518Z,24.95
2022-08-22T08:06:48.883Z,24.99
2022-08-22T08:07:53.319Z,24.95
2022-08-22T08:08:57.693Z,24.92
2022-08-22T08:10:02.127Z,24.96
2022-08-22T08:11:06.653Z,24.93
2022-08-22T08:12:10.989Z,24.91
2022-08-22T08:13:15.365Z,24.92
2022-08-22T08:14:19.702Z,24.9
2022-08-22T08:15:24.044Z,24.91
2022-08-22T08:16:33.943Z,24.87
2022-08-22T08:17:38.300Z,24.89
2022-08-22T08:18:44.701Z,24.89
2022-08-22T08:19:49.143Z,24.91
2022-08-22T08:20:56.707Z,24.91
2022-08-22T08:22:01.065Z,24.92
2022-08-22T08:23:05.473Z,24.9
2022-08-22T08:24:09.823Z,24.9
2022-08-22T08:25:14.713Z,24.9
2022-08-22T08:26:19.200Z,24.93
2022-08-22T08:27:23.702Z,24.98
2022-08-22T08:28:28.061Z,24.98
2022-08-22T08:29:32.471Z,24.94
2022-08-22T08:30:36.835Z,24.95
2022-08-22T08:31:43.246Z,24.91
2022-08-22T08:32:49.365Z,24.9
2022-08-22T08:34:26.538Z,24.93
2022-08-22T08:35:30.905Z,24.92
2022-08-22T08:37:06.896Z,24.9
2022-08-22T08:38:15.022Z,24.92
2022-08-22T08:39:19.373Z,24.91
2022-08-22T08:40:23.837Z,24.91
2022-08-22T08:41:28.406Z,24.91
2022-08-22T08:42:32.772Z,24.92
2022-08-22T08:43:37.125Z,24.91
2022-08-22T08:44:41.490Z,24.94
2022-08-22T08:45:45.851Z,24.95
2022-08-22T08:46:55.341Z,24.94
2022-08-22T08:48:00.197Z,24.96
2022-08-22T08:49:06.687Z,24.94
2022-08-22T08:50:11.957Z,24.91
2022-08-22T08:51:17.254Z,24.9
2022-08-22T08:52:25.711Z,24.93
2022-08-22T08:53:31.293Z,24.91
2022-08-22T08:54:36.296Z,24.9
2022-08-22T08:55:43.510Z,24.9
2022-08-22T08:56:49.745Z,24.95
2022-08-22T08:57:58.997Z,24.96
2022-08-22T08:59:14.647Z,24.94
2022-08-22T09:00:19.089Z,24.92
2022-08-22T09:01:27.613Z,24.94
2022-08-22T09:02:34.957Z,24.91
2022-08-22T09:03:45.881Z,24.9
2022-08-22T09:04:53.698Z,24.87
2022-08-22T09:05:58.053Z,24.9
2022-08-22T09:07:03.231Z,24.88
2022-08-22T09:08:11.788Z,24.91
2022-08-22T09:09:16.311Z,24.92
2022-08-22T09:10:20.937Z,24.89
2022-08-22T09:11:29.762Z,24.89
2022-08-22T09:12:34.098Z,24.89
2022-08-22T09:13:40.938Z,24.91
2022-08-22T09:14:46.811Z,24.89
2022-08-22T09:15:55.081Z,24.9
2022-08-22T09:17:12.270Z,24.91
2022-08-22T10:01:02.097Z,24.86
2022-08-22T10:02:06.679Z,24.89
2022-08-22T10:03:19.965Z,24.9
2022-08-22T10:04:25.407Z,24.88
2022-08-22T10:05:35.038Z,24.87
2022-08-22T10:06:48.414Z,24.89
2022-08-22T10:07:53.616Z,24.86
2022-08-22T10:08:58.499Z,24.83
2022-08-22T10:10:02.825Z,24.86
2022-08-22T10:11:07.249Z,24.84
2022-08-22T10:12:13.320Z,24.78
2022-08-22T10:13:19.133Z,24.78
2022-08-22T10:14:24.749Z,24.75
2022-08-22T10:15:29.473Z,24.74
2022-08-22T10:16:34.648Z,24.73
2022-08-22T10:17:40.943Z,24.72
2022-08-22T10:18:52.930Z,24.7
2022-08-22T10:20:07.503Z,24.72
2022-08-22T10:21:15.309Z,24.71
2022-08-22T10:22:20.268Z,24.78
2022-08-22T10:23:24.653Z,24.78
2022-08-22T10:24:29.864Z,24.78
2022-08-22T10:25:46.526Z,24.73
2022-08-22T10:26:50.883Z,24.73
2022-08-22T10:27:55.711Z,24.81
2022-08-22T10:29:00.088Z,24.75
2022-08-22T10:30:04.500Z,24.68
2022-08-22T10:31:10.439Z,24.68
2022-08-22T10:32:16.716Z,24.65
2022-08-22T10:33:30.284Z,24.61
2022-08-22T10:34:35.396Z,24.64
2022-08-22T10:35:42.316Z,24.65
2022-08-22T10:36:47.262Z,24.73
2022-08-22T10:37:52.695Z,24.7
2022-08-22T10:38:58.927Z,24.62
2022-08-22T10:40:11.818Z,24.61
2022-08-22T10:41:16.429Z,24.65
2022-08-22T10:42:27.919Z,24.6
2022-08-22T10:43:38.770Z,24.58
2022-08-22T10:44:45.324Z,24.58
2022-08-22T10:45:51.423Z,24.6
2022-08-22T10:46:57.183Z,24.62
2022-08-22T10:48:01.604Z,24.62
2022-08-22T10:49:12.105Z,24.64
2022-08-22T10:50:24.804Z,24.61
2022-08-22T10:51:35.361Z,24.62
2022-08-22T10:52:42.394Z,24.65
2022-08-22T10:53:46.861Z,24.6
2022-08-22T10:54:54.704Z,24.65
2022-08-22T10:55:59.060Z,24.67
2022-08-22T10:57:03.998Z,24.69
2022-08-22T10:58:11.851Z,24.72
2022-08-22T10:59:16.591Z,24.71
2022-08-22T11:00:26.237Z,24.67
2022-08-22T11:01:37.330Z,24.67
2022-08-22T11:02:45.662Z,24.65
2022-08-22T11:03:55.440Z,24.66
2022-08-22T11:05:00.023Z,24.7
2022-08-22T11:06:05.004Z,24.68
2022-08-22T11:07:12.594Z,24.68
2022-08-22T11:08:17.750Z,24.69
2022-08-22T11:09:22.109Z,24.68
2022-08-22T11:10:26.508Z,24.67
2022-08-22T11:11:32.494Z,24.68
2022-08-22T11:12:37.274Z,24.68
2022-08-22T11:13:48.034Z,24.68
2022-08-22T11:14:54.070Z,24.67
2022-08-22T11:16:00.150Z,24.68
2022-08-22T11:17:09.160Z,24.66
2022-08-22T11:18:44.941Z,24.71
2022-08-22T11:20:19.666Z,24.76
2022-08-22T11:21:24.865Z,24.76
2022-08-22T11:22:33.266Z,24.77
2022-08-22T11:23:37.616Z,24.8
2022-08-22T11:24:46.696Z,24.8
2022-08-22T11:26:07.211Z,24.8
2022-08-22T11:27:13.560Z,24.8
2022-08-22T11:28:40.660Z,24.82
2022-08-22T11:29:45.545Z,24.77
2022-08-22T11:30:54.429Z,24.79
2022-08-22T11:32:00.364Z,24.8
2022-08-22T11:33:11.795Z,24.78
2022-08-22T11:34:20.500Z,24.75
2022-08-22T11:35:27.912Z,24.78
2022-08-22T11:36:33.201Z,24.77
2022-08-22T11:37:42.192Z,24.75
2022-08-22T11:38:49.597Z,24.76
2022-08-22T11:39:54.470Z,24.8
2022-08-22T11:40:59.034Z,24.75
2022-08-22T11:42:06.431Z,24.7
2022-08-22T11:43:12.103Z,24.77
2022-08-22T11:44:25.574Z,24.77
2022-08-22T11:45:30.275Z,24.77
2022-08-22T11:46:36.067Z,24.78
2022-08-22T11:47:40.538Z,24.79
2022-08-22T11:48:47.836Z,24.78
2022-08-22T11:49:53.161Z,24.79
2022-08-22T11:50:57.534Z,24.79
2022-08-22T11:52:01.938Z,24.77
2022-08-22T11:53:07.683Z,24.74
2022-08-22T11:54:12.451Z,24.78
2022-08-22T11:55:17.187Z,24.78
2022-08-22T11:56:23.854Z,24.82
2022-08-22T11:57:28.696Z,24.83
2022-08-22T11:58:33.576Z,24.74
2022-08-22T11:59:40.078Z,24.75
2022-08-22T12:00:47.352Z,24.73
2022-08-22T12:01:51.991Z,24.75
2022-08-22T12:02:56.513Z,24.79
2022-08-22T12:04:03.282Z,24.8
2022-08-22T12:05:12.190Z,24.74
2022-08-22T12:06:29.811Z,24.71
2022-08-22T12:07:39.612Z,24.71
2022-08-22T12:08:43.948Z,24.73
2022-08-22T12:09:48.330Z,24.76
2022-08-22T12:10:54.069Z,24.76
2022-08-22T12:12:01.214Z,24.72
2022-08-22T12:13:08.909Z,24.75
2022-08-22T12:14:13.353Z,24.76
2022-08-22T12:15:18.507Z,24.77
2022-08-22T12:16:24.625Z,24.76
2022-08-22T12:17:51.296Z,24.79
2022-08-22T12:19:05.245Z,24.76
2022-08-22T12:20:18.681Z,24.77
2022-08-22T12:21:23.307Z,24.75
2022-08-22T12:22:29.013Z,24.74
2022-08-22T12:23:38.100Z,24.78
2022-08-22T12:24:53.966Z,24.79
2022-08-22T12:26:05.054Z,24.74
2022-08-22T12:27:18.166Z,24.72
2022-08-22T12:28:32.639Z,24.74
2022-08-22T12:29:39.765Z,24.74
2022-08-22T12:30:48.895Z,24.71
2022-08-22T12:31:59.045Z,24.68
2022-08-22T12:33:05.421Z,24.66
2022-08-22T12:34:15.654Z,24.71
2022-08-22T12:35:20.167Z,24.63
2022-08-22T12:36:34.210Z,24.65
2022-08-22T12:37:39.734Z,24.67
2022-08-22T12:38:58.114Z,24.68
2022-08-22T12:40:03.153Z,24.71
2022-08-22T12:41:08.411Z,24.72
2022-08-22T12:42:12.810Z,24.74
2022-08-22T12:43:18.703Z,24.77
2022-08-22T12:44:25.606Z,24.74
2022-08-22T12:45:29.956Z,24.73
2022-08-22T12:46:34.691Z,24.69
2022-08-22T12:47:48.919Z,24.72
2022-08-22T12:48:53.863Z,24.68
2022-08-22T12:49:58.237Z,24.69
2022-08-22T12:51:02.597Z,24.69
2022-08-22T12:52:20.926Z,24.67
2022-08-22T12:53:25.914Z,24.69
2022-08-22T12:54:33.911Z,24.69
2022-08-22T12:55:38.704Z,24.71
2022-08-22T12:56:47.333Z,24.67
2022-08-22T12:57:54.048Z,24.66
2022-08-22T12:58:59.287Z,24.6
2022-08-22T13:00:07.075Z,24.64
2022-08-22T13:01:15.243Z,24.64
2022-08-22T13:02:22.378Z,24.66
2022-08-22T13:03:27.752Z,24.62
2022-08-22T13:04:35.070Z,24.59
2022-08-22T13:05:40.472Z,24.58
2022-08-22T13:06:48.703Z,24.6
2022-08-22T13:07:55.738Z,24.63
2022-08-22T13:09:09.809Z,24.65
2022-08-22T13:10:14.505Z,24.65
2022-08-22T13:11:22.901Z,24.63
2022-08-22T13:12:31.021Z,24.65
2022-08-22T13:13:36.587Z,24.67
2022-08-22T13:14:43.055Z,24.68
2022-08-22T13:15:53.498Z,24.65
2022-08-22T13:16:58.083Z,24.65
2022-08-22T13:18:30.399Z,24.64
2022-08-22T13:19:38.156Z,24.65
2022-08-22T13:20:42.828Z,24.62
2022-08-22T13:21:48.880Z,24.65
2022-08-22T13:22:54.461Z,24.7
2022-08-22T13:24:03.031Z,24.74
2022-08-22T13:25:14.199Z,24.69
2022-08-22T13:26:31.941Z,24.64
2022-08-22T13:27:50.899Z,24.65
2022-08-22T13:29:09.180Z,24.7
2022-08-22T13:30:45.063Z,24.75
2022-08-22T13:31:53.127Z,24.73
2022-08-22T13:32:59.669Z,24.72
2022-08-22T13:34:04.077Z,24.72
2022-08-22T13:35:12.657Z,24.71
2022-08-22T13:36:26.728Z,24.71
2022-08-22T13:37:32.158Z,24.73
2022-08-22T13:38:36.508Z,24.73
2022-08-22T13:39:49.775Z,24.73
2022-08-22T13:40:57.211Z,24.74
2022-08-22T13:42:01.679Z,24.74
2022-08-22T13:43:16.545Z,24.73
2022-08-22T13:44:20.890Z,24.75
2022-08-22T13:45:25.558Z,24.75
2022-08-22T13:46:30.093Z,24.74
2022-08-22T13:48:00.578Z,24.73
2022-08-22T13:49:13.845Z,24.76
2022-08-22T13:50:19.379Z,24.77
2022-08-22T13:51:23.811Z,24.78
2022-08-22T13:52:29.458Z,24.73
2022-08-22T13:53:34.498Z,24.78
2022-08-22T13:54:39.459Z,24.74
2022-08-22T13:55:44.646Z,24.56
2022-08-22T13:56:53.500Z,24.53
2022-08-22T13:57:58.689Z,24.57
2022-08-22T13:59:03.013Z,24.62
2022-08-22T14:00:08.212Z,24.64
2022-08-22T14:01:13.444Z,24.67
2022-08-22T14:02:19.975Z,24.72
2022-08-22T14:03:36.694Z,24.72
2022-08-22T14:04:43.155Z,24.74
2022-08-22T14:05:47.775Z,24.73
2022-08-22T14:07:09.584Z,24.75
2022-08-22T14:08:13.972Z,24.73
2022-08-22T14:09:29.339Z,24.72
2022-08-22T14:10:37.071Z,24.75
2022-08-22T14:11:42.823Z,24.77
2022-08-22T14:12:49.871Z,24.85
2022-08-22T14:13:55.156Z,24.82
2022-08-22T14:15:01.381Z,24.8
2022-08-22T14:16:05.870Z,24.78
2022-08-22T14:17:22.213Z,24.76
2022-08-22T14:18:30.158Z,24.81
2022-08-22T14:19:53.250Z,24.81
2022-08-22T14:21:05.060Z,24.8
2022-08-22T14:22:19.861Z,24.82
2022-08-22T14:23:37.784Z,24.81
2022-08-22T14:24:44.920Z,24.85
2022-08-22T14:25:59.136Z,24.86
2022-08-22T14:27:05.419Z,24.89
2022-08-22T14:28:11.618Z,24.85
2022-08-22T14:29:16.334Z,24.85
2022-08-22T14:30:21.039Z,24.82
2022-08-22T14:31:30.489Z,24.84
2022-08-22T14:32:37.356Z,24.82
2022-08-22T14:33:46.860Z,24.83
2022-08-22T14:34:51.871Z,24.83
2022-08-22T14:35:56.712Z,24.84
2022-08-22T14:37:04.447Z,24.86
2022-08-22T14:38:12.083Z,24.83
2022-08-22T14:39:21.530Z,24.84
2022-08-22T14:40:26.556Z,24.84
2022-08-22T14:41:53.089Z,24.88
2022-08-22T14:43:06.501Z,24.9
2022-08-22T14:44:11.394Z,24.9
2022-08-22T14:45:15.757Z,24.81
2022-08-22T14:46:20.298Z,24.81
2022-08-22T14:47:34.511Z,24.8
2022-08-22T14:49:36.206Z,24.84
2022-08-22T14:50:42.206Z,24.83
2022-08-22T14:51:46.699Z,24.79
2022-08-22T14:52:55.845Z,24.8
2022-08-22T14:54:01.303Z,24.84
2022-08-22T14:55:08.760Z,24.88
2022-08-22T14:56:13.148Z,24.83
2022-08-22T14:57:21.350Z,24.84
2022-08-22T14:58:26.309Z,24.83
2022-08-22T14:59:32.097Z,24.85
2022-08-22T15:00:36.548Z,24.86
2022-08-22T15:01:42.601Z,24.87
2022-08-22T15:02:49.405Z,24.89
2022-08-22T15:03:55.292Z,24.91
2022-08-22T15:05:00.276Z,24.92
2022-08-22T15:06:08.771Z,24.91
2022-08-22T15:07:15.289Z,24.91
2022-08-22T15:08:21.406Z,24.93
2022-08-22T15:09:31.231Z,24.91